Time;durP1;ratioP1;P1;durP2;ratioP2;P2;SDS_P1;SDS_P2;PMS_P1;PMS_P2;Temp;Humidity;BMP_temperature;BMP_pressure;BME280_temperature;BME280_humidity;BME280_pressure;Samples;Min_cycle;Max_cycle;Signal;HPM_P1;HPM_P2
2022/08/17 00:00:39;;;;;;;0.20;0.20;;;;;;;24.49;65.52;101162.00;1955692;30;20498;-66
2022/08/17 00:01:52;;;;;;;0.20;0.20;;;;;;;;;;1955785;30;20061;-66
2022/08/17 00:03:01;;;;;;;0.30;0.30;;;;;;;24.47;65.58;101167.16;1953390;30;20099;-66
2022/08/17 00:04:03;;;;;;;0.20;0.20;;;;;;;24.40;65.86;101159.06;1948729;30;20581;-65
2022/08/17 00:05:15;;;;;;;0.30;0.30;;;;;;;24.43;65.72;101158.19;1945068;30;20061;-65
2022/08/17 00:06:19;;;;;;;0.28;0.28;;;;;;;24.45;65.79;101160.53;1949624;30;20068;-65
2022/08/17 00:07:22;;;;;;;0.30;0.30;;;;;;;;;;1947907;30;20546;-66
2022/08/17 00:08:27;;;;;;;0.25;0.25;;;;;;;24.43;65.66;101158.19;1948152;30;20558;-65
2022/08/17 00:09:30;;;;;;;0.40;0.40;;;;;;;24.37;66.09;101154.34;1954793;30;20086;-65
2022/08/17 00:10:33;;;;;;;0.38;0.38;;;;;;;24.39;65.72;101160.22;1956026;30;20431;-65
2022/08/17 00:11:42;;;;;;;0.35;0.35;;;;;;;24.39;65.29;101156.69;1956563;30;20132;-65
2022/08/17 00:13:06;;;;;;;0.20;0.20;;;;;;;24.32;65.68;101156.84;1951079;30;20095;-65
2022/08/17 00:14:12;;;;;;;0.30;0.30;;;;;;;24.31;65.79;101160.81;1956411;30;20064;-65
2022/08/17 00:15:15;;;;;;;0.20;0.20;;;;;;;24.28;65.87;101162.44;1956789;30;20168;-65
2022/08/17 00:16:22;;;;;;;0.28;0.28;;;;;;;24.25;65.87;101152.25;1954337;30;20132;-65
2022/08/17 00:17:46;;;;;;;0.30;0.30;;;;;;;24.19;66.14;101148.44;1942446;30;20136;-65
2022/08/17 00:18:51;;;;;;;0.20;0.20;;;;;;;24.18;66.31;101141.34;1946383;30;20069;-66
2022/08/17 00:20:12;;;;;;;0.30;0.30;;;;;;;24.16;66.23;101157.56;1948435;30;20530;-66
2022/08/17 00:21:19;;;;;;;0.20;0.20;;;;;;;24.14;66.30;101148.94;1934628;30;20062;-64
2022/08/17 00:22:26;;;;;;;;;;;;;;;23.89;67.33;101151.38;1943691;30;20061;-65
2022/08/17 00:23:37;;;;;;;0.30;0.30;;;;;;;23.98;67.08;101148.88;1948041;30;19993;-65
2022/08/17 00:24:49;;;;;;;0.30;0.30;;;;;;;24.00;67.08;101146.47;1949194;30;20061;-65
2022/08/17 00:25:52;;;;;;;0.30;0.30;;;;;;;24.04;66.85;101144.41;1960751;30;20087;-65
2022/08/17 00:26:56;;;;;;;0.30;0.30;;;;;;;24.05;66.90;101137.69;1956350;30;20068;-65
2022/08/17 00:27:58;;;;;;;0.30;0.30;;;;;;;24.06;66.98;101144.75;1955963;30;20183;-66
2022/08/17 00:29:02;;;;;;;0.30;0.30;;;;;;;24.06;66.81;101139.25;1954176;30;20064;-65
2022/08/17 00:30:07;;;;;;;0.30;0.30;;;;;;;24.08;66.73;101139.59;1950802;30;20061;-65
2022/08/17 00:31:11;;;;;;;0.30;0.30;;;;;;;24.06;66.91;101142.00;1962288;30;20063;-65
2022/08/17 00:32:14;;;;;;;0.38;0.38;;;;;;;24.04;67.11;101143.66;1956540;30;20060;-65
2022/08/17 00:33:39;;;;;;;0.30;0.30;;;;;;;24.00;67.31;101143.72;1951869;30;20069;-64
2022/08/17 00:34:40;;;;;;;0.30;0.30;;;;;;;23.99;67.19;101138.63;1952241;30;20518;-66
2022/08/17 00:35:45;;;;;;;0.30;0.30;;;;;;;24.01;67.41;101142.50;1951895;30;20060;-66
2022/08/17 00:36:47;;;;;;;0.30;0.30;;;;;;;23.96;67.12;101145.72;1949539;30;20132;-66
2022/08/17 00:37:50;;;;;;;0.32;0.32;;;;;;;23.98;67.01;101137.81;1954572;30;20242;-66
2022/08/17 00:38:52;;;;;;;0.30;0.30;;;;;;;23.96;67.05;101137.44;1947898;30;20096;-66
2022/08/17 00:39:55;;;;;;;0.30;0.30;;;;;;;23.94;67.00;101148.13;1955445;30;20088;-66
2022/08/17 00:41:04;;;;;;;0.30;0.30;;;;;;;23.91;67.16;101143.47;1955862;30;20117;-66
2022/08/17 00:42:14;;;;;;;0.30;0.30;;;;;;;23.89;67.25;101151.38;1955546;30;20575;-66
2022/08/17 00:43:19;;;;;;;0.30;0.30;;;;;;;23.88;67.24;101149.81;1956657;30;20064;-66
2022/08/17 00:44:22;;;;;;;0.30;0.30;;;;;;;23.83;67.67;101147.56;1959772;30;20485;-65
2022/08/17 00:45:31;;;;;;;0.30;0.30;;;;;;;23.84;67.53;101151.88;1956553;30;20060;-66
2022/08/17 00:46:36;;;;;;;0.30;0.30;;;;;;;23.85;67.56;101152.66;1955675;30;20071;-65
2022/08/17 00:47:39;;;;;;;0.30;0.30;;;;;;;23.81;67.75;101152.72;1945929;30;20136;-66
2022/08/17 00:48:42;;;;;;;0.30;0.30;;;;;;;23.83;67.70;101152.28;1947697;30;20099;-65
2022/08/17 00:49:44;;;;;;;0.30;0.30;;;;;;;23.82;67.62;101146.00;1963737;30;20318;-65
2022/08/17 00:50:58;;;;;;;0.30;0.30;;;;;;;23.80;67.63;101156.66;1954448;30;20068;-66
2022/08/17 00:52:07;;;;;;;0.30;0.30;;;;;;;23.80;67.78;101162.16;1951298;30;20141;-66
2022/08/17 00:53:13;;;;;;;0.35;0.35;;;;;;;23.75;67.83;101151.66;1953879;30;20414;-66
2022/08/17 00:54:19;;;;;;;0.30;0.30;;;;;;;23.82;67.32;101156.25;1953926;30;20565;-66
2022/08/17 00:55:24;;;;;;;0.30;0.30;;;;;;;23.75;67.76;101154.41;1949966;30;20515;-65
2022/08/17 00:56:32;;;;;;;0.30;0.30;;;;;;;23.74;67.48;101155.59;1949634;30;20096;-66
2022/08/17 00:57:40;;;;;;;0.30;0.30;;;;;;;23.71;67.86;101156.44;1956335;30;21628;-65
2022/08/17 00:58:42;;;;;;;0.30;0.30;;;;;;;23.67;68.10;101155.75;1951349;30;20144;-66
2022/08/17 00:59:49;;;;;;;0.30;0.30;;;;;;;23.67;67.99;101158.50;1950113;30;20087;-66
2022/08/17 01:01:07;;;;;;;0.30;0.30;;;;;;;23.60;68.25;101150.34;1949044;30;20053;-66
2022/08/17 01:02:12;;;;;;;0.30;0.30;;;;;;;23.62;68.05;101158.97;1950745;30;20053;-65
2022/08/17 01:03:20;;;;;;;0.30;0.30;;;;;;;23.59;68.39;101149.56;1956885;30;20063;-66
2022/08/17 01:04:24;;;;;;;0.30;0.30;;;;;;;23.59;68.09;101148.78;1958050;30;20140;-65
2022/08/17 01:05:30;;;;;;;0.30;0.30;;;;;;;23.56;68.62;101153.16;1955742;30;20208;-66
2022/08/17 01:06:33;;;;;;;0.30;0.30;;;;;;;23.56;68.35;101153.16;1945448;30;20072;-66
2022/08/17 01:07:37;;;;;;;0.35;0.35;;;;;;;23.55;68.55;101159.88;1948504;30;20599;-65
2022/08/17 01:08:40;;;;;;;0.22;0.22;;;;;;;23.54;68.58;101152.81;1957272;30;20132;-66
2022/08/17 01:09:43;;;;;;;0.30;0.30;;;;;;;23.54;68.51;101155.56;1943319;30;20510;-65
2022/08/17 01:10:48;;;;;;;0.40;0.40;;;;;;;23.57;68.41;101156.69;1944459;30;20115;-66
2022/08/17 01:12:07;;;;;;;0.35;0.35;;;;;;;23.51;68.39;101158.38;1951300;30;20057;-65
2022/08/17 01:13:13;;;;;;;0.30;0.30;;;;;;;23.43;68.84;101152.22;1957101;30;20128;-66
2022/08/17 01:14:15;;;;;;;0.40;0.40;;;;;;;23.39;68.78;101158.97;1958065;30;20056;-64
2022/08/17 01:15:18;;;;;;;0.30;0.30;;;;;;;23.38;68.85;101160.97;1955780;30;20108;-65
2022/08/17 01:16:24;;;;;;;0.30;0.30;;;;;;;23.36;69.03;101166.13;1960701;30;20128;-65
2022/08/17 01:17:27;;;;;;;0.30;0.30;;;;;;;23.29;69.12;101162.72;1956598;30;20062;-66
2022/08/17 01:18:31;;;;;;;0.30;0.30;;;;;;;23.23;69.38;101164.34;1957935;30;20532;-65
2022/08/17 01:19:37;;;;;;;0.22;0.22;;;;;;;23.22;69.66;101160.03;1950471;30;20072;-65
2022/08/17 01:20:46;;;;;;;0.30;0.30;;;;;;;23.17;70.08;101171.50;1952437;30;20052;-65
2022/08/17 01:21:53;;;;;;;0.30;0.30;;;;;;;23.17;69.78;101172.31;1956851;30;20641;-65
2022/08/17 01:22:58;;;;;;;0.30;0.30;;;;;;;23.19;69.74;101160.84;1953314;30;20148;-65
2022/08/17 01:24:00;;;;;;;0.30;0.30;;;;;;;23.19;69.87;101161.66;1948634;30;20105;-65
2022/08/17 01:25:07;;;;;;;0.30;0.30;;;;;;;23.22;69.95;101160.03;1957161;30;20103;-65
2022/08/17 01:26:09;;;;;;;0.30;0.30;;;;;;;23.20;69.58;101154.16;1956006;30;20049;-66
2022/08/17 01:27:13;;;;;;;0.30;0.30;;;;;;;23.21;69.74;101152.97;1955784;30;20510;-66
2022/08/17 01:28:20;;;;;;;0.30;0.30;;;;;;;23.23;69.43;101156.09;1954904;30;20060;-66
2022/08/17 01:29:46;;;;;;;0.30;0.30;;;;;;;23.22;69.42;101149.78;1956268;30;20064;-65
2022/08/17 01:30:50;;;;;;;0.30;0.30;;;;;;;23.23;69.70;101156.09;1960238;30;20052;-65
2022/08/17 01:32:04;;;;;;;0.30;0.30;;;;;;;23.22;69.48;101155.31;1958914;30;20136;-66
2022/08/17 01:33:10;;;;;;;0.30;0.30;;;;;;;23.21;69.32;101152.97;1953945;30;20106;-64
2022/08/17 01:34:15;;;;;;;0.30;0.30;;;;;;;23.22;69.30;101147.03;1958028;30;20056;-65
2022/08/17 01:35:17;;;;;;;0.20;0.20;;;;;;;23.23;69.37;101145.81;1955512;30;20130;-65
2022/08/17 01:36:20;;;;;;;0.30;0.30;;;;;;;23.25;68.88;101153.66;1962608;30;20578;-65
2022/08/17 01:37:29;;;;;;;0.25;0.25;;;;;;;23.24;69.09;101147.41;1961609;30;20060;-65
2022/08/17 01:38:34;;;;;;;0.22;0.22;;;;;;;23.24;68.94;101144.66;1957409;30;20193;-65
2022/08/17 01:39:41;;;;;;;0.30;0.30;;;;;;;23.25;68.74;101145.41;1958199;30;20206;-65
2022/08/17 01:40:49;;;;;;;0.30;0.30;;;;;;;23.24;68.70;101138.34;1958453;30;20052;-65
2022/08/17 01:42:05;;;;;;;0.30;0.30;;;;;;;23.21;68.98;101145.47;1957209;30;20487;-65
2022/08/17 01:43:11;;;;;;;0.30;0.30;;;;;;;23.22;69.04;101140.72;1956297;30;20065;-65
2022/08/17 01:44:15;;;;;;;0.40;0.40;;;;;;;23.19;69.07;101139.59;1959637;30;20873;-66
2022/08/17 01:45:25;;;;;;;0.30;0.30;;;;;;;23.17;69.25;101144.75;1954391;30;20067;-65
2022/08/17 01:46:30;;;;;;;0.40;0.40;;;;;;;23.15;69.20;101147.13;1964936;30;20052;-65
2022/08/17 01:47:33;;;;;;;0.30;0.30;;;;;;;23.12;69.35;101142.47;1958189;30;20166;-65
2022/08/17 01:48:37;;;;;;;0.30;0.30;;;;;;;23.12;69.38;101141.72;1959390;30;20528;-65
2022/08/17 01:49:40;;;;;;;0.30;0.30;;;;;;;23.11;69.38;101137.38;1958189;30;20147;-65
2022/08/17 01:50:43;;;;;;;0.30;0.30;;;;;;;23.12;69.21;101138.94;1956757;30;20067;-65
2022/08/17 01:51:48;;;;;;;0.30;0.30;;;;;;;23.08;69.50;101132.72;1956639;30;20060;-66
2022/08/17 01:52:57;;;;;;;0.30;0.30;;;;;;;23.11;69.53;101140.13;1952252;30;20084;-64
2022/08/17 01:54:05;;;;;;;0.30;0.30;;;;;;;23.09;69.13;101139.75;1956607;30;20084;-65
2022/08/17 01:55:09;;;;;;;0.32;0.32;;;;;;;23.03;69.43;101146.94;1957463;30;20064;-65
2022/08/17 01:56:14;;;;;;;0.30;0.30;;;;;;;23.02;69.25;101140.69;1955802;30;20127;-65
2022/08/17 01:57:16;;;;;;;0.30;0.30;;;;;;;23.00;69.23;101150.53;1960369;30;20136;-65
2022/08/17 01:58:20;;;;;;;0.30;0.30;;;;;;;23.00;69.47;101145.03;1953213;30;20171;-64
2022/08/17 01:59:22;;;;;;;0.30;0.30;;;;;;;22.89;70.26;101141.66;1953033;30;20079;-65
2022/08/17 02:00:26;;;;;;;0.32;0.32;;;;;;;22.92;69.85;101144.38;1952574;30;20468;-64
2022/08/17 02:01:49;;;;;;;0.30;0.30;;;;;;;22.80;70.34;101142.16;1953746;30;20481;-65
2022/08/17 02:02:52;;;;;;;0.30;0.30;;;;;;;22.78;70.43;101143.78;1955084;30;20060;-65
2022/08/17 02:03:55;;;;;;;0.40;0.40;;;;;;;22.77;70.33;101145.00;1955554;30;20124;-64
2022/08/17 02:05:03;;;;;;;0.40;0.40;;;;;;;22.73;70.71;101153.31;1949815;30;20057;-65
2022/08/17 02:06:06;;;;;;;0.30;0.30;;;;;;;22.74;70.60;101154.09;1948914;30;20178;-65
2022/08/17 02:07:29;;;;;;;0.30;0.30;;;;;;;22.68;70.67;101155.72;1958848;30;20086;-65
2022/08/17 02:08:34;;;;;;;0.40;0.40;;;;;;;22.69;70.89;101158.06;1954856;30;20134;-65
2022/08/17 02:09:42;;;;;;;0.30;0.30;;;;;;;22.70;70.89;101161.59;1952911;30;20442;-65
2022/08/17 02:10:53;;;;;;;0.40;0.40;;;;;;;22.67;70.56;101154.19;1956153;30;20128;-65
2022/08/17 02:11:58;;;;;;;0.40;0.40;;;;;;;22.68;70.78;101158.47;1951429;30;20673;-66
2022/08/17 02:13:20;;;;;;;0.40;0.40;;;;;;;22.64;70.75;101157.75;1950663;30;20572;-64
2022/08/17 02:14:24;;;;;;;0.32;0.32;;;;;;;22.65;70.44;101157.34;1957570;30;20669;-65
2022/08/17 02:15:27;;;;;;;0.30;0.30;;;;;;;22.66;70.66;101158.13;1951768;30;20098;-64
2022/08/17 02:16:32;;;;;;;0.30;0.30;;;;;;;22.70;70.46;101158.84;1952319;30;20425;-66
2022/08/17 02:17:39;;;;;;;0.30;0.30;;;;;;;22.68;70.95;101155.72;1954606;30;20067;-64
2022/08/17 02:18:42;;;;;;;0.40;0.40;;;;;;;22.69;70.24;101157.31;1956238;30;20091;-64
2022/08/17 02:19:45;;;;;;;0.30;0.30;;;;;;;22.70;70.31;101158.84;1956797;30;20092;-65
2022/08/17 02:20:50;;;;;;;0.30;0.30;;;;;;;22.68;70.27;101152.97;1960557;30;20068;-65
2022/08/17 02:21:53;;;;;;;0.30;0.30;;;;;;;22.70;70.40;101158.84;1956125;30;20053;-64
2022/08/17 02:22:56;;;;;;;0.30;0.30;;;;;;;22.70;70.23;101154.13;1955578;30;20092;-64
2022/08/17 02:23:58;;;;;;;0.30;0.30;;;;;;;22.70;70.36;101154.13;1956626;30;20087;-64
2022/08/17 02:25:08;;;;;;;0.38;0.38;;;;;;;22.72;69.65;101153.72;1956280;30;20129;-65
2022/08/17 02:26:10;;;;;;;0.40;0.40;;;;;;;22.69;70.14;101154.56;1952114;30;20514;-65
2022/08/17 02:27:27;;;;;;;0.30;0.30;;;;;;;22.66;70.40;101158.13;1960039;30;20060;-65
2022/08/17 02:28:29;;;;;;;0.30;0.30;;;;;;;22.67;69.76;101154.97;1952730;30;20057;-65
2022/08/17 02:29:32;;;;;;;0.30;0.30;;;;;;;22.66;69.92;101155.38;1951223;30;20139;-65
2022/08/17 02:30:35;;;;;;;0.38;0.38;;;;;;;22.66;69.96;101149.88;1949525;30;20084;-65
2022/08/17 02:32:00;;;;;;;0.38;0.38;;;;;;;22.60;69.99;101157.03;1958273;30;20053;-65
2022/08/17 02:33:02;;;;;;;0.25;0.25;;;;;;;22.59;70.31;101158.22;1960543;30;20060;-65
2022/08/17 02:34:11;;;;;;;0.30;0.30;;;;;;;22.57;70.28;101163.34;1953496;30;20132;-65
2022/08/17 02:35:13;;;;;;;0.30;0.30;;;;;;;22.57;70.57;101155.09;1950608;30;20610;-66
2022/08/17 02:36:21;;;;;;;0.20;0.20;;;;;;;22.54;70.49;101153.19;1956428;30;20088;-64
2022/08/17 02:37:29;;;;;;;0.30;0.30;;;;;;;22.49;70.89;101153.59;1950948;30;20136;-65
2022/08/17 02:38:32;;;;;;;0.30;0.30;;;;;;;22.46;70.63;101157.97;1944995;30;20118;-65
2022/08/17 02:39:34;;;;;;;0.30;0.30;;;;;;;22.46;71.13;101159.94;1942527;30;20092;-64
2022/08/17 02:40:39;;;;;;;0.40;0.40;;;;;;;22.45;70.85;101156.44;1948839;30;20069;-65
2022/08/17 02:41:41;;;;;;;0.30;0.30;;;;;;;22.43;70.96;101149.75;1955064;30;20466;-64
2022/08/17 02:42:45;;;;;;;0.30;0.30;;;;;;;22.43;71.06;101153.28;1959339;30;20528;-65
2022/08/17 02:43:47;;;;;;;0.30;0.30;;;;;;;22.44;70.88;101151.34;1951690;30;20451;-64
2022/08/17 02:44:50;;;;;;;0.30;0.30;;;;;;;22.44;71.02;101145.84;1953012;30;20497;-64
2022/08/17 02:45:52;;;;;;;0.30;0.30;;;;;;;22.44;71.14;101145.84;1956365;30;20573;-65
2022/08/17 02:46:56;;;;;;;0.25;0.25;;;;;;;22.44;71.16;101151.34;1956900;30;20095;-64
2022/08/17 02:47:58;;;;;;;0.30;0.30;;;;;;;22.44;70.94;101143.84;1957906;30;20122;-67
2022/08/17 02:49:01;;;;;;;0.30;0.30;;;;;;;22.42;70.80;101143.47;1949009;30;20060;-64
2022/08/17 02:50:03;;;;;;;0.30;0.30;;;;;;;22.46;70.11;101146.19;1947105;30;20128;-65
2022/08/17 02:51:07;;;;;;;0.30;0.30;;;;;;;22.43;70.65;101152.50;1953937;30;20099;-65
2022/08/17 02:52:09;;;;;;;0.25;0.25;;;;;;;22.43;70.28;101158.00;1955249;30;20067;-65
2022/08/17 02:53:12;;;;;;;0.30;0.30;;;;;;;22.41;70.17;101154.88;1957494;30;20567;-65
2022/08/17 02:54:14;;;;;;;0.30;0.30;;;;;;;22.43;70.22;101155.25;1953523;30;20064;-65
2022/08/17 02:55:40;;;;;;;0.40;0.40;;;;;;;22.39;70.50;101160.81;1949760;30;20057;-66
2022/08/17 02:56:42;;;;;;;0.30;0.30;;;;;;;22.37;70.23;101151.41;1949189;30;20087;-64
2022/08/17 02:57:45;;;;;;;0.30;0.30;;;;;;;22.36;70.78;101153.38;1957245;30;20159;-64
2022/08/17 02:58:48;;;;;;;0.30;0.30;;;;;;;22.35;70.70;101153.78;1957576;30;20352;-64
2022/08/17 02:59:51;;;;;;;0.30;0.30;;;;;;;22.36;70.75;101155.38;1955082;30;20148;-64
2022/08/17 03:00:52;;;;;;;0.30;0.30;;;;;;;22.31;70.37;101155.81;1951485;30;20085;-64
2022/08/17 03:01:55;;;;;;;0.30;0.30;;;;;;;22.31;70.78;101153.06;1953815;30;20832;-64
2022/08/17 03:02:58;;;;;;;0.30;0.30;;;;;;;22.29;70.42;101149.94;1950235;30;20073;-65
2022/08/17 03:04:01;;;;;;;0.30;0.30;;;;;;;22.29;70.80;101149.94;1956061;30;20135;-65
2022/08/17 03:05:04;;;;;;;0.35;0.35;;;;;;;22.27;71.21;101155.84;1953323;30;20060;-65
2022/08/17 03:06:08;;;;;;;0.30;0.30;;;;;;;22.26;70.74;101157.06;1950265;30;20547;-65
2022/08/17 03:07:10;;;;;;;0.30;0.30;;;;;;;22.22;71.11;101161.81;1948025;30;20525;-64
2022/08/17 03:08:14;;;;;;;0.30;0.30;;;;;;;22.23;71.18;101153.16;1957030;30;20144;-64
2022/08/17 03:09:16;;;;;;;0.30;0.30;;;;;;;22.21;71.26;101154.75;1956312;30;20067;-64
2022/08/17 03:10:20;;;;;;;0.40;0.40;;;;;;;22.20;71.52;101162.22;1958974;30;20091;-65
2022/08/17 03:11:23;;;;;;;0.30;0.30;;;;;;;22.23;71.09;101157.88;1960489;30;20553;-65
2022/08/17 03:12:31;;;;;;;0.30;0.30;;;;;;;22.22;71.31;101161.81;1961378;30;20123;-65
2022/08/17 03:13:33;;;;;;;0.30;0.30;;;;;;;22.20;70.94;101167.72;1954202;30;20068;-65
2022/08/17 03:14:37;;;;;;;0.30;0.30;;;;;;;22.22;71.27;101164.56;1950450;30;20053;-65
2022/08/17 03:15:44;;;;;;;0.38;0.38;;;;;;;22.21;71.05;101163.78;1952226;30;20454;-65
2022/08/17 03:16:47;;;;;;;0.30;0.30;;;;;;;22.19;71.57;101163.41;1955433;30;20470;-65
2022/08/17 03:17:51;;;;;;;0.30;0.30;;;;;;;22.16;71.42;101158.75;1955144;30;20188;-64
2022/08/17 03:18:54;;;;;;;0.30;0.30;;;;;;;22.17;71.36;101163.03;1962801;30;20064;-64
2022/08/17 03:19:57;;;;;;;0.38;0.38;;;;;;;22.16;71.14;101158.75;1957994;30;20077;-64
2022/08/17 03:21:03;;;;;;;0.30;0.30;;;;;;;22.14;71.37;101163.88;1957301;30;20100;-65
2022/08/17 03:22:07;;;;;;;0.30;0.30;;;;;;;22.13;71.20;101156.81;1951750;30;20068;-65
2022/08/17 03:23:31;;;;;;;0.30;0.30;;;;;;;22.07;71.52;101155.69;1957813;30;20071;-64
2022/08/17 03:24:33;;;;;;;0.30;0.30;;;;;;;22.07;71.16;101161.19;1960576;30;20183;-64
2022/08/17 03:25:42;;;;;;;0.30;0.30;;;;;;;22.04;71.70;101162.00;1954524;30;20057;-65
2022/08/17 03:26:46;;;;;;;0.30;0.30;;;;;;;22.02;71.91;101161.63;1953617;30;20072;-65
2022/08/17 03:27:49;;;;;;;0.32;0.32;;;;;;;21.99;71.51;101159.72;1952610;30;20578;-65
2022/08/17 03:28:52;;;;;;;0.30;0.30;;;;;;;21.97;71.34;101153.84;1953594;30;20065;-67
2022/08/17 03:29:55;;;;;;;0.30;0.30;;;;;;;21.91;71.72;101151.97;1955486;30;20141;-67
2022/08/17 03:30:58;;;;;;;0.20;0.20;;;;;;;21.87;72.24;101153.97;1948852;30;20606;-65
2022/08/17 03:32:09;;;;;;;0.30;0.30;;;;;;;21.82;72.09;101152.44;1955935;30;20061;-66
2022/08/17 03:33:12;;;;;;;0.30;0.30;;;;;;;21.80;72.09;101160.31;1959988;30;20059;-66
2022/08/17 03:34:15;;;;;;;0.30;0.30;;;;;;;21.81;72.08;101161.09;1956837;30;20699;-66
2022/08/17 03:35:21;;;;;;;0.30;0.30;;;;;;;21.80;71.90;101146.56;1955891;30;20578;-66
2022/08/17 03:36:25;;;;;;;0.30;0.30;;;;;;;21.80;72.10;101146.56;1952263;30;20064;-66
2022/08/17 03:37:27;;;;;;;0.20;0.20;;;;;;;21.76;72.24;101140.34;1950022;30;20057;-66
2022/08/17 03:38:30;;;;;;;0.20;0.20;;;;;;;21.80;71.93;101146.56;1956858;30;20728;-65
2022/08/17 03:39:40;;;;;;;0.30;0.30;;;;;;;21.78;72.12;101148.97;1952570;30;20064;-67
2022/08/17 03:40:45;;;;;;;0.22;0.22;;;;;;;21.79;71.82;101145.00;1956102;30;20064;-66
2022/08/17 03:42:05;;;;;;;0.50;0.50;;;;;;;21.75;72.26;101144.28;1958091;30;20163;-65
2022/08/17 03:43:10;;;;;;;0.35;0.35;;;;;;;21.66;72.41;101152.19;1945995;30;20128;-66
2022/08/17 03:44:12;;;;;;;0.30;0.30;;;;;;;21.62;72.29;101148.69;1942499;30;20057;-65
2022/08/17 03:56:40;;;;;;;0.30;0.30;;;;;;;21.60;72.47;101150.28;1963559;30;20515;-65
2022/08/17 03:57:35;;;;;;;;;;;;;;;21.02;75.29;101155.88;1954663;30;20088;-64
2022/08/17 03:58:37;;;;;;;0.30;0.30;;;;;;;21.15;75.10;101157.75;1957007;30;20473;-65
2022/08/17 03:59:40;;;;;;;0.30;0.30;;;;;;;21.24;74.15;101157.28;1958108;30;20533;-66
2022/08/17 04:00:44;;;;;;;0.20;0.20;;;;;;;21.28;73.95;101164.28;1957080;30;20121;-65
2022/08/17 04:01:49;;;;;;;0.40;0.40;;;;;;;21.31;74.10;101159.97;1947976;30;20505;-65
2022/08/17 04:02:54;;;;;;;0.30;0.30;;;;;;;21.34;73.93;101159.16;1949865;30;20169;-64
2022/08/17 04:03:57;;;;;;;0.20;0.20;;;;;;;21.36;73.90;101156.81;1962765;30;20135;-65
2022/08/17 04:05:00;;;;;;;0.30;0.30;;;;;;;21.36;74.31;101154.81;1958528;30;20127;-65
2022/08/17 04:06:02;;;;;;;0.30;0.30;;;;;;;21.39;73.98;101159.50;1951980;30;20132;-65
2022/08/17 04:07:06;;;;;;;0.30;0.30;;;;;;;21.40;73.83;101152.84;1952304;30;20088;-66
2022/08/17 04:08:08;;;;;;;0.30;0.30;;;;;;;21.44;73.58;101155.53;1953987;30;20522;-65
2022/08/17 04:09:12;;;;;;;0.30;0.30;;;;;;;21.47;73.88;101166.50;1956286;30;20060;-65
2022/08/17 04:10:15;;;;;;;0.30;0.30;;;;;;;21.45;73.79;101157.91;1961360;30;20073;-65
2022/08/17 04:11:17;;;;;;;0.50;0.50;;;;;;;21.46;73.57;101159.44;1953183;30;20089;-66
2022/08/17 04:12:23;;;;;;;0.40;0.40;;;;;;;21.47;73.81;101158.25;1951734;30;20478;-65
2022/08/17 04:13:26;;;;;;;0.40;0.40;;;;;;;21.47;73.81;101161.00;1948216;30;20061;-65
2022/08/17 04:14:35;;;;;;;0.50;0.50;;;;;;;21.41;73.95;101161.84;1949156;30;20064;-65
2022/08/17 04:15:53;;;;;;;0.50;0.50;;;;;;;21.37;73.98;101167.38;1955975;30;20422;-65
2022/08/17 04:16:56;;;;;;;0.60;0.60;;;;;;;21.35;73.84;101167.00;1955871;30;20092;-65
2022/08/17 04:17:58;;;;;;;0.80;0.80;;;;;;;21.32;73.85;101165.06;1941263;30;20061;-65
2022/08/17 04:19:01;;;;;;;0.40;0.40;;;;;;;21.28;74.28;101158.81;1941695;30;20506;-65
2022/08/17 04:20:04;;;;;;;0.60;0.60;;;;;;;21.26;74.37;101161.19;1954951;30;20057;-65
2022/08/17 04:21:09;;;;;;;0.40;0.40;;;;;;;21.27;74.42;101167.44;1948641;30;20072;-65
2022/08/17 04:22:11;;;;;;;0.40;0.40;;;;;;;21.25;74.35;101167.09;1954135;30;20590;-65
2022/08/17 04:23:35;;;;;;;0.40;0.40;;;;;;;21.24;74.73;101171.81;1954883;30;20114;-66
2022/08/17 04:24:37;;;;;;;0.50;0.50;;;;;;;21.27;74.24;101171.00;1956132;30;20137;-65
2022/08/17 04:25:42;;;;;;;0.40;0.40;;;;;;;21.26;74.49;101172.19;1955609;30;20083;-66
2022/08/17 04:26:44;;;;;;;0.50;0.50;;;;;;;21.20;74.92;101162.03;1956270;30;20084;-64
2022/08/17 04:27:56;;;;;;;0.50;0.50;;;;;;;21.19;74.73;101165.94;1959671;30;20171;-65
2022/08/17 04:29:00;;;;;;;0.40;0.40;;;;;;;21.22;74.62;101168.66;1959803;30;20084;-65
2022/08/17 04:30:05;;;;;;;0.50;0.50;;;;;;;21.20;74.75;101165.53;1956288;30;20240;-65
2022/08/17 04:31:08;;;;;;;0.55;0.55;;;;;;;21.21;74.78;101169.88;1950808;30;20502;-66
2022/08/17 04:32:11;;;;;;;0.50;0.50;;;;;;;21.18;74.48;101170.69;1953256;30;20454;-65
2022/08/17 04:33:15;;;;;;;0.50;0.50;;;;;;;21.20;74.70;101173.03;1954186;30;20088;-65
2022/08/17 04:34:20;;;;;;;0.30;0.30;;;;;;;21.18;74.64;101173.41;1963430;30;20138;-64
2022/08/17 04:35:24;;;;;;;0.40;0.40;;;;;;;21.19;74.54;101169.47;1952904;30;20877;-65
2022/08/17 04:36:27;;;;;;;0.40;0.40;;;;;;;21.16;75.15;101170.28;1950707;30;20065;-65
2022/08/17 04:37:29;;;;;;;0.40;0.40;;;;;;;21.19;74.97;101177.72;1945980;30;20069;-66
2022/08/17 04:38:34;;;;;;;0.50;0.50;;;;;;;21.21;74.84;101183.59;1946982;30;20068;-65
2022/08/17 04:39:36;;;;;;;0.40;0.40;;;;;;;21.20;74.92;101181.25;1957544;30;20144;-65
2022/08/17 04:42:15;;;;;;;0.50;0.50;;;;;;;21.22;74.59;101179.66;1956214;30;20092;-65
2022/08/17 04:43:24;;;;;;;0.50;0.50;;;;;;;21.25;74.21;101184.34;1952947;30;20068;-67
2022/08/17 04:44:30;;;;;;;0.50;0.50;;;;;;;21.24;74.39;101180.03;1951245;30;20530;-66
2022/08/17 04:45:43;;;;;;;0.50;0.50;;;;;;;21.25;74.35;101178.84;1961034;30;20155;-65
2022/08/17 04:46:59;;;;;;;0.50;0.50;;;;;;;21.23;74.09;101178.47;1957991;30;20056;-66
2022/08/17 04:48:01;;;;;;;0.50;0.50;;;;;;;21.24;74.31;101173.75;1957399;30;20136;-66
2022/08/17 04:49:06;;;;;;;0.45;0.45;;;;;;;21.26;74.43;101176.88;1957700;30;20090;-66
2022/08/17 04:50:08;;;;;;;0.40;0.40;;;;;;;21.26;73.98;101172.19;1948722;30;20152;-65
2022/08/17 04:51:15;;;;;;;0.50;0.50;;;;;;;21.30;73.81;101167.44;1950520;30;20144;-66
2022/08/17 04:52:18;;;;;;;0.50;0.50;;;;;;;21.28;73.98;101169.78;1956512;30;20060;-66
2022/08/17 04:53:43;;;;;;;0.50;0.50;;;;;;;21.25;74.36;101170.59;1959327;30;20206;-67
2022/08/17 04:54:45;;;;;;;0.45;0.45;;;;;;;21.26;74.41;101174.94;1956612;30;20073;-65
2022/08/17 04:55:48;;;;;;;0.40;0.40;;;;;;;21.30;73.91;101178.41;1956283;30;20687;-65
2022/08/17 04:56:50;;;;;;;0.50;0.50;;;;;;;21.31;73.92;101174.47;1957783;30;20056;-66
2022/08/17 04:57:53;;;;;;;0.50;0.50;;;;;;;21.33;73.77;101177.59;1956303;30;20185;-66
2022/08/17 04:58:56;;;;;;;0.40;0.40;;;;;;;21.36;73.70;101176.78;1953640;30;20456;-65
2022/08/17 05:00:01;;;;;;;0.50;0.50;;;;;;;21.39;74.08;101181.47;1954192;30;20064;-66
2022/08/17 05:01:04;;;;;;;0.50;0.50;;;;;;;21.39;74.03;101181.47;1958549;30;20071;-65
2022/08/17 05:02:07;;;;;;;0.50;0.50;;;;;;;21.39;74.11;101175.97;1959782;30;20505;-66
2022/08/17 05:03:09;;;;;;;0.50;0.50;;;;;;;21.37;73.72;101183.88;1958757;30;20166;-66
2022/08/17 05:04:15;;;;;;;0.50;0.50;;;;;;;21.38;73.36;101174.44;1954685;30;20110;-65
2022/08/17 05:05:38;;;;;;;0.45;0.45;;;;;;;21.33;73.53;101180.34;1957127;30;20572;-65
2022/08/17 05:06:41;;;;;;;0.50;0.50;;;;;;;21.31;73.27;101185.47;1960058;30;20064;-66
2022/08/17 05:07:43;;;;;;;0.50;0.50;;;;;;;21.31;73.08;101182.72;1955527;30;20136;-65
2022/08/17 05:08:46;;;;;;;0.50;0.50;;;;;;;21.30;73.21;101183.91;1960085;30;20139;-65
2022/08/17 05:09:49;;;;;;;0.50;0.50;;;;;;;21.30;72.96;101183.91;1959393;30;20129;-66
2022/08/17 05:10:51;;;;;;;0.60;0.60;;;;;;;21.30;73.21;101181.16;1955635;30;20517;-65
2022/08/17 05:11:54;;;;;;;0.50;0.50;;;;;;;21.32;73.28;101186.25;1960922;30;20217;-65
2022/08/17 05:12:58;;;;;;;0.47;0.47;;;;;;;21.34;73.18;101184.69;1954794;30;20057;-66
2022/08/17 05:14:01;;;;;;;0.52;0.52;;;;;;;21.34;73.39;101183.88;1960535;30;20052;-66
2022/08/17 05:15:10;;;;;;;0.50;0.50;;;;;;;21.36;73.61;101187.78;1961067;30;20099;-65
2022/08/17 05:16:13;;;;;;;0.50;0.50;;;;;;;21.36;73.25;101182.28;1951355;30;20155;-66
2022/08/17 05:17:14;;;;;;;0.43;0.43;;;;;;;21.38;73.67;101182.66;1955677;30;20523;-66
2022/08/17 05:18:17;;;;;;;0.50;0.50;;;;;;;21.37;74.02;101186.63;1948976;30;20122;-65
2022/08/17 05:19:19;;;;;;;0.50;0.50;;;;;;;21.37;73.63;101192.09;1941325;30;20546;-65